createdAt,value
2023-01-18T00:00:28.835Z,71.02
2023-01-18T00:02:56.712Z,71.77
2023-01-18T00:05:24.751Z,71.45
2023-01-18T00:07:53.451Z,71.51
2023-01-18T00:10:22.450Z,71.06
2023-01-18T00:12:51.607Z,70.34
2023-01-18T00:15:19.401Z,71.51
2023-01-18T00:17:51.754Z,71.31
2023-01-18T00:20:22.131Z,70.33
2023-01-18T00:22:49.881Z,70.58
2023-01-18T00:25:17.835Z,70.53
2023-01-18T00:27:47.332Z,70.36
2023-01-18T00:30:19.006Z,70.71
2023-01-18T00:32:46.494Z,71.85
2023-01-18T00:35:15.311Z,72.40
2023-01-18T00:37:45.088Z,72.09
2023-01-18T00:40:12.958Z,73.01
2023-01-18T00:42:58.641Z,73.92
2023-01-18T00:45:27.814Z,72.47
2023-01-18T00:47:55.814Z,72.01
2023-01-18T00:50:23.518Z,71.99
2023-01-18T00:52:56.941Z,71.70
2023-01-18T00:55:24.931Z,72.11
2023-01-18T00:57:52.682Z,71.52
2023-01-18T01:00:20.374Z,71.58
2023-01-18T01:02:54.642Z,72.56
2023-01-18T01:05:42.269Z,72.46
2023-01-18T01:08:17.426Z,72.18
2023-01-18T01:10:46.258Z,71.80
2023-01-18T01:13:32.601Z,72.33
2023-01-18T01:16:18.032Z,71.73
2023-01-18T01:19:04.524Z,71.23
2023-01-18T01:21:49.903Z,72.17
2023-01-18T01:24:35.223Z,72.05
2023-01-18T01:27:02.718Z,72.24
2023-01-18T01:29:30.233Z,72.11
2023-01-18T01:31:57.778Z,72.26
2023-01-18T01:34:27.069Z,72.57
2023-01-18T01:36:54.554Z,73.02
2023-01-18T01:39:22.259Z,73.56
2023-01-18T01:41:49.987Z,71.77
2023-01-18T01:44:44.430Z,74.39
2023-01-18T01:47:18.561Z,72.33
2023-01-18T01:49:52.291Z,73.08
2023-01-18T01:52:22.994Z,73.24
2023-01-18T01:54:55.421Z,74.14
2023-01-18T01:57:26.962Z,73.08
2023-01-18T01:59:58.791Z,72.46
2023-01-18T02:02:26.447Z,72.81
2023-01-18T02:04:56.447Z,72.30
2023-01-18T02:07:26.576Z,72.31
2023-01-18T02:09:55.100Z,72.48
2023-01-18T02:12:23.155Z,72.52
2023-01-18T02:14:50.956Z,72.78
2023-01-18T02:17:32.768Z,72.45
2023-01-18T02:20:37.844Z,75.78
2023-01-18T02:23:34.843Z,74.16
2023-01-18T02:26:30.441Z,72.43
2023-01-18T02:29:05.851Z,71.77
2023-01-18T02:31:39.270Z,72.65
2023-01-18T02:34:13.457Z,73.59
2023-01-18T02:36:47.890Z,71.76
2023-01-18T02:39:23.178Z,71.17
2023-01-18T02:42:14.757Z,72.92
2023-01-18T02:45:04.194Z,72.03
2023-01-18T02:47:33.478Z,73.07
2023-01-18T02:50:01.038Z,73.37
2023-01-18T02:52:42.518Z,72.64
2023-01-18T02:55:18.853Z,71.63
2023-01-18T02:57:46.777Z,72.65
2023-01-18T03:00:19.055Z,71.95
2023-01-18T03:02:49.751Z,71.62
2023-01-18T03:05:18.136Z,71.15
2023-01-18T03:07:53.421Z,71.67
2023-01-18T03:10:22.841Z,72.15
2023-01-18T03:12:59.643Z,71.86
2023-01-18T03:15:40.196Z,73.05
2023-01-18T03:18:17.756Z,72.79
2023-01-18T03:20:52.833Z,73.21
2023-01-18T03:23:41.903Z,72.45
2023-01-18T03:26:10.871Z,71.84
2023-01-18T03:28:58.624Z,72.94
2023-01-18T03:31:56.324Z,72.22
2023-01-18T03:34:27.976Z,72.75
2023-01-18T03:36:59.764Z,71.72
2023-01-18T03:39:31.158Z,71.33
2023-01-18T03:42:02.770Z,71.63
2023-01-18T03:44:36.643Z,73.13
2023-01-18T03:47:06.870Z,73.35
2023-01-18T03:49:35.617Z,72.13
2023-01-18T03:52:11.040Z,73.30
2023-01-18T03:54:46.846Z,73.72
2023-01-18T03:57:19.801Z,71.52
2023-01-18T03:59:48.259Z,71.95
2023-01-18T04:02:18.852Z,73.98
2023-01-18T04:04:46.391Z,73.09
2023-01-18T04:07:13.861Z,73.46
2023-01-18T04:09:41.359Z,72.64
2023-01-18T04:12:09.036Z,71.65
2023-01-18T04:14:36.500Z,72.24
2023-01-18T04:17:03.983Z,71.94
2023-01-18T04:19:32.912Z,72.43
2023-01-18T04:22:00.422Z,72.96
2023-01-18T04:24:29.501Z,73.03
2023-01-18T04:26:57.034Z,73.55
2023-01-18T04:29:24.905Z,73.38
2023-01-18T04:31:52.451Z,73.54
2023-01-18T04:34:22.099Z,72.88
2023-01-18T04:36:51.065Z,73.89
2023-01-18T04:39:18.836Z,74.42
2023-01-18T04:41:46.960Z,73.95
2023-01-18T04:44:16.020Z,73.65
2023-01-18T04:46:43.916Z,72.96
2023-01-18T04:49:15.263Z,73.34
2023-01-18T04:51:43.519Z,72.77
2023-01-18T04:54:16.473Z,73.54
2023-01-18T04:56:44.086Z,73.07
2023-01-18T04:59:16.193Z,73.19
2023-01-18T05:01:43.848Z,74.17
2023-01-18T05:04:11.447Z,74.15
2023-01-18T05:06:38.945Z,73.54
2023-01-18T05:09:06.474Z,73.78
2023-01-18T05:11:35.289Z,73.53
2023-01-18T05:14:02.749Z,73.65
2023-01-18T05:16:30.378Z,73.26
2023-01-18T05:18:57.862Z,73.10
2023-01-18T05:21:25.422Z,72.99
2023-01-18T05:23:54.812Z,73.00
2023-01-18T05:26:24.041Z,74.38
2023-01-18T05:28:58.080Z,74.33
2023-01-18T05:31:26.244Z,73.28
2023-01-18T05:33:53.751Z,72.98
2023-01-18T05:36:21.334Z,73.06
2023-01-18T05:38:48.848Z,73.25
2023-01-18T05:41:16.439Z,73.36
2023-01-18T05:43:44.065Z,72.57
2023-01-18T05:46:12.989Z,74.36
2023-01-18T05:48:40.580Z,74.03
2023-01-18T05:51:09.674Z,74.12
2023-01-18T05:53:37.293Z,74.73
2023-01-18T05:56:07.334Z,74.74
2023-01-18T05:58:35.330Z,73.89
2023-01-18T06:01:02.949Z,73.59
2023-01-18T06:03:32.043Z,75.11
2023-01-18T06:05:59.610Z,74.68
2023-01-18T06:08:27.364Z,74.37
2023-01-18T06:10:55.711Z,74.53
2023-01-18T06:13:23.470Z,75.73
2023-01-18T06:15:51.876Z,75.83
2023-01-18T06:18:19.440Z,75.81
2023-01-18T06:23:27.547Z,75.06
2023-01-18T06:32:17.925Z,75.62
2023-01-18T06:34:46.798Z,75.85
2023-01-18T06:37:14.570Z,75.48
2023-01-18T06:39:43.440Z,76.70
2023-01-18T06:42:10.962Z,76.80
2023-01-18T06:44:38.515Z,76.93
2023-01-18T06:47:07.101Z,76.16
2023-01-18T06:49:34.685Z,75.39
2023-01-18T06:52:02.229Z,75.76
2023-01-18T06:54:31.080Z,76.53
2023-01-18T06:56:59.996Z,77.18
2023-01-18T06:59:28.551Z,76.77
2023-01-18T07:01:56.264Z,75.95
2023-01-18T07:04:23.901Z,75.85
2023-01-18T07:06:51.494Z,75.60
2023-01-18T07:09:19.043Z,76.36
2023-01-18T07:11:46.852Z,76.65
2023-01-18T07:14:15.865Z,76.90
2023-01-18T07:16:43.584Z,76.28
2023-01-18T07:19:11.345Z,76.58
2023-01-18T07:21:39.603Z,76.74
2023-01-18T07:24:07.595Z,76.21
2023-01-18T07:26:35.126Z,75.89
2023-01-18T07:29:02.659Z,76.27
2023-01-18T07:31:31.911Z,76.58
2023-01-18T07:33:59.919Z,77.06
2023-01-18T07:36:27.425Z,76.46
2023-01-18T07:38:55.110Z,76.49
2023-01-18T07:41:23.091Z,76.05
2023-01-18T07:43:50.575Z,75.89
2023-01-18T07:46:20.627Z,77.14
2023-01-18T07:48:50.167Z,76.49
2023-01-18T07:51:18.457Z,76.28
2023-01-18T07:53:46.563Z,76.09
2023-01-18T07:56:15.638Z,76.03
2023-01-18T07:58:43.254Z,75.69
2023-01-18T08:01:13.788Z,75.54
2023-01-18T08:03:42.729Z,76.12
2023-01-18T08:06:12.698Z,76.18
2023-01-18T08:08:40.923Z,75.12
2023-01-18T08:11:08.602Z,75.37
2023-01-18T08:13:36.824Z,75.14
2023-01-18T08:16:07.013Z,75.50
2023-01-18T08:18:34.612Z,75.99
2023-01-18T08:21:02.142Z,76.41
2023-01-18T08:23:31.078Z,76.17
2023-01-18T08:26:01.949Z,77.03
2023-01-18T08:28:29.464Z,74.44
2023-01-18T08:31:07.822Z,74.57
2023-01-18T08:33:38.317Z,74.46
2023-01-18T08:36:06.595Z,74.58
2023-01-18T08:38:35.472Z,74.76
2023-01-18T08:41:03.453Z,75.07
2023-01-18T08:43:30.996Z,75.06
2023-01-18T08:45:59.249Z,75.18
2023-01-18T08:48:27.054Z,74.65
2023-01-18T08:50:54.600Z,74.73
2023-01-18T08:53:22.168Z,74.27
2023-01-18T08:55:51.062Z,74.04
2023-01-18T08:58:18.581Z,73.43
2023-01-18T09:00:50.401Z,73.21
2023-01-18T09:03:20.535Z,73.37
2023-01-18T09:05:48.441Z,74.45
2023-01-18T09:08:16.362Z,75.20
2023-01-18T09:10:43.904Z,74.07
2023-01-18T09:13:12.937Z,73.73
2023-01-18T09:15:40.513Z,73.52
2023-01-18T09:18:08.274Z,73.32
2023-01-18T09:20:36.886Z,73.61
2023-01-18T09:23:05.799Z,73.99
2023-01-18T09:25:33.365Z,73.40
2023-01-18T09:28:02.827Z,73.27
2023-01-18T09:30:32.234Z,74.08
2023-01-18T09:33:01.033Z,73.61
2023-01-18T09:35:28.834Z,73.54
2023-01-18T09:37:57.233Z,73.04
2023-01-18T09:40:36.051Z,74.82
2023-01-18T09:43:04.081Z,73.57
2023-01-18T09:45:34.874Z,73.57
2023-01-18T09:48:06.004Z,73.29
2023-01-18T09:50:39.300Z,72.76
2023-01-18T09:53:22.618Z,73.81
2023-01-18T09:55:56.905Z,73.00
2023-01-18T09:58:44.218Z,72.66
2023-01-18T10:01:16.975Z,74.04
2023-01-18T10:03:48.967Z,73.69
2023-01-18T10:06:21.039Z,74.13
2023-01-18T10:08:54.897Z,72.89
2023-01-18T10:11:30.147Z,72.65
2023-01-18T10:14:05.128Z,72.08
2023-01-18T10:16:35.669Z,72.22
2023-01-18T10:19:03.428Z,72.69
2023-01-18T10:21:41.771Z,71.77
2023-01-18T10:24:30.932Z,72.88
2023-01-18T10:27:10.750Z,72.45
2023-01-18T10:30:00.105Z,72.72
2023-01-18T10:32:31.091Z,72.48
2023-01-18T10:34:58.745Z,73.03
2023-01-18T10:37:33.412Z,72.98
2023-01-18T10:40:04.046Z,72.75
2023-01-18T10:42:37.035Z,73.44
2023-01-18T10:45:07.086Z,73.15
2023-01-18T10:47:36.005Z,73.19
2023-01-18T10:50:13.816Z,74.44
2023-01-18T10:52:41.656Z,73.25
2023-01-18T10:55:16.021Z,74.46
2023-01-18T10:57:45.609Z,73.27
2023-01-18T11:00:22.601Z,72.12
2023-01-18T11:02:53.027Z,72.09
2023-01-18T11:05:28.285Z,72.89
2023-01-18T11:08:11.522Z,72.79
2023-01-18T11:10:41.463Z,73.50
2023-01-18T11:13:26.218Z,73.54
2023-01-18T11:16:05.097Z,73.51
2023-01-18T11:18:34.007Z,72.85
2023-01-18T11:21:01.897Z,72.46
2023-01-18T11:23:35.683Z,73.64
2023-01-18T11:26:07.959Z,72.89
2023-01-18T11:28:39.394Z,73.24
2023-01-18T11:31:10.834Z,73.52
2023-01-18T11:33:49.987Z,73.11
2023-01-18T11:36:19.340Z,72.72
2023-01-18T11:38:47.675Z,72.24
2023-01-18T11:41:17.985Z,72.45
2023-01-18T11:44:05.217Z,71.67
2023-01-18T11:46:41.776Z,72.16
2023-01-18T11:49:22.904Z,73.79
2023-01-18T11:51:56.573Z,71.86
2023-01-18T11:54:28.354Z,71.56
2023-01-18T11:56:59.688Z,71.17
2023-01-18T11:59:30.963Z,71.00
2023-01-18T12:02:25.975Z,71.53
2023-01-18T12:05:17.748Z,72.65
2023-01-18T12:07:55.361Z,73.36
2023-01-18T12:10:24.499Z,72.55
2023-01-18T12:13:07.520Z,71.97
2023-01-18T12:15:47.513Z,71.66
2023-01-18T12:18:32.833Z,71.96
2023-01-18T12:21:08.264Z,72.22
2023-01-18T12:23:58.378Z,72.67
2023-01-18T12:26:43.004Z,72.12
2023-01-18T12:29:38.784Z,74.43
2023-01-18T12:32:20.356Z,73.62
2023-01-18T12:35:04.934Z,72.10
2023-01-18T12:37:46.429Z,71.94
2023-01-18T12:40:37.628Z,71.52
2023-01-18T12:43:15.852Z,73.76
2023-01-18T12:45:49.742Z,72.94
2023-01-18T12:48:24.623Z,73.07
2023-01-18T12:50:52.649Z,72.57
2023-01-18T12:53:28.069Z,72.03
2023-01-18T12:55:56.819Z,72.55
2023-01-18T12:58:27.787Z,73.27
2023-01-18T13:00:59.707Z,72.16
2023-01-18T13:03:33.005Z,72.97
2023-01-18T13:06:02.276Z,73.22
2023-01-18T13:08:42.084Z,73.55
2023-01-18T13:11:15.027Z,71.88
2023-01-18T13:13:44.880Z,72.22
2023-01-18T13:16:32.174Z,71.70
2023-01-18T13:19:03.888Z,72.59
2023-01-18T13:21:45.027Z,73.54
2023-01-18T13:24:26.639Z,73.77
2023-01-18T13:27:06.647Z,73.27
2023-01-18T13:29:34.233Z,73.82
2023-01-18T13:32:01.978Z,73.76
2023-01-18T13:34:33.572Z,74.48
2023-01-18T13:37:14.595Z,73.82
2023-01-18T13:39:48.487Z,74.26
2023-01-18T13:42:26.534Z,73.38
2023-01-18T13:45:17.194Z,73.68
2023-01-18T13:47:51.249Z,72.99
2023-01-18T13:50:42.231Z,74.65
2023-01-18T13:53:21.445Z,73.21
2023-01-18T13:56:10.282Z,71.92
2023-01-18T13:58:38.610Z,72.29
2023-01-18T14:01:08.425Z,73.23
2023-01-18T14:03:39.578Z,72.06
2023-01-18T14:06:13.831Z,71.84
2023-01-18T14:08:51.305Z,71.99
2023-01-18T14:11:26.735Z,71.89
2023-01-18T14:14:03.175Z,71.44
2023-01-18T14:16:34.470Z,72.48
2023-01-18T14:19:04.686Z,72.66
2023-01-18T14:21:48.572Z,72.85
2023-01-18T14:24:27.495Z,73.68
2023-01-18T14:26:58.832Z,72.86
2023-01-18T14:29:34.781Z,73.76
2023-01-18T14:32:06.286Z,73.52
2023-01-18T14:34:39.879Z,72.76
2023-01-18T14:37:29.878Z,74.26
2023-01-18T14:40:16.104Z,74.69
2023-01-18T14:42:49.442Z,73.46
2023-01-18T14:45:27.418Z,73.07
2023-01-18T14:47:56.934Z,73.02
2023-01-18T14:50:26.120Z,73.23
2023-01-18T14:52:54.375Z,73.42
2023-01-18T14:55:27.563Z,75.00
2023-01-18T14:58:03.385Z,75.97
2023-01-18T15:00:31.182Z,74.42
2023-01-18T15:03:01.623Z,73.75
2023-01-18T15:05:30.900Z,73.26
2023-01-18T15:07:59.399Z,73.06
2023-01-18T15:10:27.567Z,73.29
2023-01-18T15:12:59.612Z,72.12
2023-01-18T15:15:31.421Z,72.70
2023-01-18T15:18:05.622Z,71.60
2023-01-18T15:20:33.817Z,72.05
2023-01-18T15:23:01.839Z,71.42
2023-01-18T15:25:33.031Z,72.17
2023-01-18T15:28:14.964Z,73.46
2023-01-18T15:30:52.129Z,72.20
2023-01-18T15:33:22.145Z,72.98
2023-01-18T15:35:53.167Z,73.66
2023-01-18T15:38:21.203Z,72.11
2023-01-18T15:40:56.522Z,72.89
2023-01-18T15:43:30.563Z,73.34
2023-01-18T15:45:58.830Z,73.43
2023-01-18T15:48:28.302Z,72.31
2023-01-18T15:50:58.150Z,71.71
2023-01-18T15:53:31.237Z,72.02
2023-01-18T15:56:03.284Z,71.94
2023-01-18T15:58:35.830Z,71.24
2023-01-18T16:01:04.968Z,72.09
2023-01-18T16:03:36.787Z,71.43
2023-01-18T16:06:16.885Z,71.55
2023-01-18T16:09:10.504Z,72.75
2023-01-18T16:11:45.715Z,71.44
2023-01-18T16:14:24.995Z,71.88
2023-01-18T16:16:53.842Z,72.73
2023-01-18T16:19:28.389Z,73.59
2023-01-18T16:21:59.622Z,74.10
2023-01-18T16:24:36.405Z,75.76
2023-01-18T16:27:11.269Z,73.61
2023-01-18T16:29:47.891Z,73.63
2023-01-18T16:32:29.130Z,72.43
2023-01-18T16:34:58.893Z,72.78
2023-01-18T16:37:26.449Z,73.18
2023-01-18T16:39:55.371Z,73.04
2023-01-18T16:42:29.662Z,72.05
2023-01-18T16:45:02.158Z,73.64
2023-01-18T16:47:29.656Z,73.13
2023-01-18T16:49:57.540Z,72.65
2023-01-18T16:52:25.011Z,73.76
2023-01-18T16:54:52.510Z,73.52
2023-01-18T16:57:22.095Z,73.00
2023-01-18T16:59:49.995Z,72.99
2023-01-18T17:02:18.963Z,72.92
2023-01-18T17:04:46.638Z,73.41
2023-01-18T17:07:14.649Z,74.04
2023-01-18T17:09:48.721Z,73.50
2023-01-18T17:12:16.900Z,73.47
2023-01-18T17:14:44.353Z,73.42
2023-01-18T17:17:12.089Z,73.59
2023-01-18T17:19:43.676Z,73.75
2023-01-18T17:22:11.179Z,74.13
2023-01-18T17:24:38.673Z,74.64
2023-01-18T17:27:09.913Z,74.43
2023-01-18T17:29:37.464Z,74.10
2023-01-18T17:32:06.387Z,74.75
2023-01-18T17:34:33.885Z,75.41
2023-01-18T17:37:03.379Z,73.69
2023-01-18T17:39:42.639Z,74.88
2023-01-18T17:42:25.909Z,75.27
2023-01-18T17:45:02.607Z,75.19
2023-01-18T17:47:30.435Z,74.09
2023-01-18T17:49:58.446Z,74.03
2023-01-18T17:52:28.309Z,73.37
2023-01-18T17:54:55.805Z,73.06
2023-01-18T17:57:23.266Z,72.77
2023-01-18T17:59:55.443Z,72.92
2023-01-18T18:02:23.328Z,72.54
2023-01-18T18:04:50.936Z,72.21
2023-01-18T18:07:18.929Z,72.71
2023-01-18T18:09:47.801Z,73.02
2023-01-18T18:12:15.517Z,73.65
2023-01-18T18:14:43.272Z,73.24
2023-01-18T18:17:11.461Z,72.61
2023-01-18T18:19:38.967Z,72.67
2023-01-18T18:22:06.998Z,72.84
2023-01-18T18:24:34.483Z,73.80
2023-01-18T18:27:03.295Z,72.81
2023-01-18T18:29:30.768Z,73.62
2023-01-18T18:31:58.328Z,74.39
2023-01-18T18:34:25.865Z,73.99
2023-01-18T18:36:53.351Z,74.24
2023-01-18T18:39:20.862Z,73.68
2023-01-18T18:41:49.040Z,73.27
2023-01-18T18:44:17.926Z,73.50
2023-01-18T18:46:45.773Z,73.99
2023-01-18T18:49:13.486Z,75.01
2023-01-18T18:51:41.073Z,74.90
2023-01-18T18:54:10.885Z,73.86
2023-01-18T18:56:38.415Z,73.52
2023-01-18T18:59:05.964Z,73.20
2023-01-18T19:01:35.252Z,73.88
2023-01-18T19:04:04.427Z,73.62
2023-01-18T19:06:32.087Z,73.60
2023-01-18T19:08:59.595Z,74.10
2023-01-18T19:11:27.174Z,74.57
2023-01-18T19:13:55.590Z,74.31
2023-01-18T19:16:23.165Z,74.97
2023-01-18T19:18:52.238Z,74.72
2023-01-18T19:21:20.273Z,75.09
2023-01-18T19:23:47.790Z,75.45
2023-01-18T19:26:15.337Z,74.69
2023-01-18T19:28:43.128Z,74.87
2023-01-18T19:31:13.531Z,74.59
2023-01-18T19:33:41.154Z,74.21
2023-01-18T19:36:12.427Z,74.13
2023-01-18T19:38:45.889Z,74.19
2023-01-18T19:41:14.688Z,74.19
2023-01-18T19:43:42.705Z,74.03
2023-01-18T19:46:11.898Z,73.56
2023-01-18T19:48:40.257Z,73.54
2023-01-18T19:51:21.339Z,73.36
2023-01-18T19:53:50.420Z,73.70
2023-01-18T19:56:17.934Z,74.01
2023-01-18T19:58:45.439Z,73.63
2023-01-18T20:01:30.233Z,74.38
2023-01-18T20:04:02.604Z,74.11
2023-01-18T20:06:31.519Z,73.99
2023-01-18T20:08:59.047Z,74.09
2023-01-18T20:11:26.559Z,74.42
2023-01-18T20:13:54.063Z,75.07
2023-01-18T20:16:21.895Z,74.32
2023-01-18T20:18:49.658Z,74.56
2023-01-18T20:21:19.236Z,74.33
2023-01-18T20:23:48.467Z,74.46
2023-01-18T20:26:22.116Z,73.57
2023-01-18T20:28:53.664Z,74.96
2023-01-18T20:31:21.238Z,75.53
2023-01-18T20:33:49.093Z,75.08
2023-01-18T20:36:16.710Z,75.64
2023-01-18T20:38:44.193Z,74.74
2023-01-18T20:41:13.489Z,74.31
2023-01-18T20:43:41.154Z,73.77
2023-01-18T20:46:10.105Z,73.75
2023-01-18T20:48:38.958Z,74.49
2023-01-18T20:51:07.925Z,74.00
2023-01-18T20:53:37.850Z,73.16
2023-01-18T20:56:11.943Z,73.58
2023-01-18T20:58:52.073Z,73.80
2023-01-18T21:01:19.844Z,74.60
2023-01-18T21:03:52.571Z,74.07
2023-01-18T21:06:20.088Z,73.73
2023-01-18T21:08:47.637Z,73.63
2023-01-18T21:11:16.765Z,74.63
2023-01-18T21:13:44.599Z,73.56
2023-01-18T21:16:13.717Z,74.26
2023-01-18T21:18:41.346Z,74.71
2023-01-18T21:21:09.618Z,74.05
2023-01-18T21:23:39.145Z,74.10
2023-01-18T21:26:08.854Z,73.10
2023-01-18T21:28:36.683Z,72.86
2023-01-18T21:31:04.971Z,73.10
2023-01-18T21:33:33.873Z,74.04
2023-01-18T21:36:05.031Z,73.78
2023-01-18T21:38:33.619Z,74.34
2023-01-18T21:41:21.418Z,74.46
2023-01-18T21:44:06.926Z,74.93
2023-01-18T21:46:34.423Z,73.54
2023-01-18T21:49:07.545Z,75.14
2023-01-18T21:51:52.778Z,75.11
2023-01-18T21:54:22.137Z,74.69
2023-01-18T21:56:51.896Z,75.69
2023-01-18T21:59:19.483Z,75.80
2023-01-18T22:01:47.866Z,75.88
2023-01-18T22:04:34.703Z,75.92
2023-01-18T22:07:04.189Z,76.39
2023-01-18T22:09:31.907Z,75.72
2023-01-18T22:12:00.052Z,75.55
2023-01-18T22:14:27.821Z,75.86
2023-01-18T22:16:55.398Z,75.06
2023-01-18T22:19:24.333Z,75.02
2023-01-18T22:21:51.835Z,73.74
2023-01-18T22:24:19.694Z,74.35
2023-01-18T22:26:47.156Z,75.03
2023-01-18T22:29:14.746Z,75.41
2023-01-18T22:31:42.417Z,75.15
2023-01-18T22:34:18.389Z,73.10
2023-01-18T22:36:47.222Z,74.51
2023-01-18T22:39:15.136Z,75.59
2023-01-18T22:41:42.943Z,74.97
2023-01-18T22:44:12.292Z,74.71
2023-01-18T22:46:39.784Z,73.59
2023-01-18T22:49:07.300Z,74.70
2023-01-18T22:51:35.711Z,76.34
2023-01-18T22:54:04.744Z,74.24
2023-01-18T22:56:32.365Z,73.29
2023-01-18T22:59:00.421Z,75.01
2023-01-18T23:01:30.749Z,76.06
2023-01-18T23:04:00.415Z,75.05
2023-01-18T23:06:29.059Z,74.08
2023-01-18T23:08:57.113Z,73.86
2023-01-18T23:11:30.037Z,76.18
2023-01-18T23:14:16.734Z,76.97
2023-01-18T23:17:02.491Z,76.97
2023-01-18T23:19:30.982Z,75.39
2023-01-18T23:21:58.855Z,75.93
2023-01-18T23:24:27.479Z,75.69
2023-01-18T23:26:56.303Z,73.77
2023-01-18T23:29:23.907Z,75.15
2023-01-18T23:31:51.414Z,76.46
2023-01-18T23:34:19.211Z,77.08
2023-01-18T23:36:46.722Z,77.06
2023-01-18T23:39:32.035Z,76.01
2023-01-18T23:42:18.639Z,75.37
2023-01-18T23:45:03.756Z,74.79
2023-01-18T23:47:48.978Z,75.31
2023-01-18T23:50:34.726Z,76.35
2023-01-18T23:53:20.070Z,76.56
2023-01-18T23:55:47.798Z,77.31
2023-01-18T23:58:16.686Z,76.73
